sensor_id;sensor_type;location;lat;lon;timestamp;temperature;humidity
16408;DHT22;8313;49.894;8.084;2023-12-20T00:00:57;4.70;99.90
16408;DHT22;8313;49.894;8.084;2023-12-20T00:03:22;4.70;99.90
16408;DHT22;8313;49.894;8.084;2023-12-20T00:05:49;4.70;99.90
16408;DHT22;8313;49.894;8.084;2023-12-20T00:08:15;4.70;99.90
16408;DHT22;8313;49.894;8.084;2023-12-20T00:10:41;4.70;99.90
16408;DHT22;8313;49.894;8.084;2023-12-20T00:13:07;4.70;99.90
16408;DHT22;8313;49.894;8.084;2023-12-20T00:15:33;4.70;99.90
16408;DHT22;8313;49.894;8.084;2023-12-20T00:17:59;4.70;99.90
16408;DHT22;8313;49.894;8.084;2023-12-20T00:20:26;4.70;99.90
16408;DHT22;8313;49.894;8.084;2023-12-20T00:22:54;4.70;99.90
16408;DHT22;8313;49.894;8.084;2023-12-20T00:25:20;4.70;99.90
16408;DHT22;8313;49.894;8.084;2023-12-20T00:27:46;4.70;99.90
16408;DHT22;8313;49.894;8.084;2023-12-20T00:30:11;4.70;99.90
16408;DHT22;8313;49.894;8.084;2023-12-20T00:32:37;4.70;99.90
16408;DHT22;8313;49.894;8.084;2023-12-20T00:35:03;4.70;99.90
16408;DHT22;8313;49.894;8.084;2023-12-20T00:37:29;4.70;99.90
16408;DHT22;8313;49.894;8.084;2023-12-20T00:39:55;4.70;99.90
16408;DHT22;8313;49.894;8.084;2023-12-20T00:42:20;4.70;99.90
16408;DHT22;8313;49.894;8.084;2023-12-20T00:44:46;4.70;99.90
16408;DHT22;8313;49.894;8.084;2023-12-20T00:47:12;4.70;99.90
16408;DHT22;8313;49.894;8.084;2023-12-20T00:49:38;4.80;99.90
16408;DHT22;8313;49.894;8.084;2023-12-20T00:52:04;4.70;99.90
16408;DHT22;8313;49.894;8.084;2023-12-20T00:54:30;4.70;99.90
16408;DHT22;8313;49.894;8.084;2023-12-20T00:56:56;4.70;99.90
16408;DHT22;8313;49.894;8.084;2023-12-20T00:59:22;4.80;99.90
16408;DHT22;8313;49.894;8.084;2023-12-20T01:01:47;4.70;99.90
16408;DHT22;8313;49.894;8.084;2023-12-20T01:04:13;4.70;99.90
16408;DHT22;8313;49.894;8.084;2023-12-20T01:06:39;4.70;99.90
16408;DHT22;8313;49.894;8.084;2023-12-20T01:09:04;4.70;99.90
16408;DHT22;8313;49.894;8.084;2023-12-20T01:11:30;4.70;99.90
16408;DHT22;8313;49.894;8.084;2023-12-20T01:13:56;4.70;99.90
16408;DHT22;8313;49.894;8.084;2023-12-20T01:16:21;4.70;99.90
16408;DHT22;8313;49.894;8.084;2023-12-20T01:18:47;4.70;99.90
16408;DHT22;8313;49.894;8.084;2023-12-20T01:21:13;4.70;99.90
16408;DHT22;8313;49.894;8.084;2023-12-20T01:23:38;4.70;99.90
16408;DHT22;8313;49.894;8.084;2023-12-20T01:26:04;4.70;99.90
16408;DHT22;8313;49.894;8.084;2023-12-20T01:28:31;4.70;99.90
16408;DHT22;8313;49.894;8.084;2023-12-20T01:30:57;4.70;99.90
16408;DHT22;8313;49.894;8.084;2023-12-20T01:33:23;4.70;99.90
16408;DHT22;8313;49.894;8.084;2023-12-20T01:35:49;4.70;99.90
16408;DHT22;8313;49.894;8.084;2023-12-20T01:38:15;4.70;99.90
16408;DHT22;8313;49.894;8.084;2023-12-20T01:40:44;4.80;99.90
16408;DHT22;8313;49.894;8.084;2023-12-20T01:43:10;4.80;99.90
16408;DHT22;8313;49.894;8.084;2023-12-20T01:45:38;4.80;99.90
16408;DHT22;8313;49.894;8.084;2023-12-20T01:48:05;4.80;99.90
16408;DHT22;8313;49.894;8.084;2023-12-20T01:50:31;4.70;99.90
16408;DHT22;8313;49.894;8.084;2023-12-20T01:53:00;4.80;99.90
16408;DHT22;8313;49.894;8.084;2023-12-20T01:55:27;4.80;99.90
16408;DHT22;8313;49.894;8.084;2023-12-20T01:57:55;4.80;99.90
16408;DHT22;8313;49.894;8.084;2023-12-20T02:00:23;4.70;99.90
16408;DHT22;8313;49.894;8.084;2023-12-20T02:02:50;4.80;99.90
16408;DHT22;8313;49.894;8.084;2023-12-20T02:05:17;4.70;99.90
16408;DHT22;8313;49.894;8.084;2023-12-20T02:07:43;4.80;99.90
16408;DHT22;8313;49.894;8.084;2023-12-20T02:10:08;4.80;99.90
16408;DHT22;8313;49.894;8.084;2023-12-20T02:12:34;4.80;99.90
16408;DHT22;8313;49.894;8.084;2023-12-20T02:15:01;4.80;99.90
16408;DHT22;8313;49.894;8.084;2023-12-20T02:17:27;4.80;99.90
16408;DHT22;8313;49.894;8.084;2023-12-20T02:19:53;4.80;99.90
16408;DHT22;8313;49.894;8.084;2023-12-20T02:22:19;4.80;99.90
16408;DHT22;8313;49.894;8.084;2023-12-20T02:24:44;4.80;99.90
16408;DHT22;8313;49.894;8.084;2023-12-20T02:27:10;4.80;99.90
16408;DHT22;8313;49.894;8.084;2023-12-20T02:29:36;4.80;99.90
16408;DHT22;8313;49.894;8.084;2023-12-20T02:32:02;4.80;99.90
16408;DHT22;8313;49.894;8.084;2023-12-20T02:34:28;4.80;99.90
16408;DHT22;8313;49.894;8.084;2023-12-20T02:36:54;4.80;99.90
16408;DHT22;8313;49.894;8.084;2023-12-20T02:39:21;4.80;99.90
16408;DHT22;8313;49.894;8.084;2023-12-20T02:41:48;4.80;99.90
16408;DHT22;8313;49.894;8.084;2023-12-20T02:44:14;4.80;99.90
16408;DHT22;8313;49.894;8.084;2023-12-20T02:46:39;4.80;99.90
16408;DHT22;8313;49.894;8.084;2023-12-20T02:49:06;4.90;99.90
16408;DHT22;8313;49.894;8.084;2023-12-20T02:51:31;4.90;99.90
16408;DHT22;8313;49.894;8.084;2023-12-20T02:53:57;4.90;99.90
16408;DHT22;8313;49.894;8.084;2023-12-20T02:56:23;5.00;99.90
16408;DHT22;8313;49.894;8.084;2023-12-20T02:58:48;4.90;99.90
16408;DHT22;8313;49.894;8.084;2023-12-20T03:01:14;4.90;99.90
16408;DHT22;8313;49.894;8.084;2023-12-20T03:03:40;4.90;99.90
16408;DHT22;8313;49.894;8.084;2023-12-20T03:06:06;4.90;99.90
16408;DHT22;8313;49.894;8.084;2023-12-20T03:08:31;4.90;99.90
16408;DHT22;8313;49.894;8.084;2023-12-20T03:10:59;4.90;99.90
16408;DHT22;8313;49.894;8.084;2023-12-20T03:13:24;4.90;99.90
16408;DHT22;8313;49.894;8.084;2023-12-20T03:15:50;5.00;99.90
16408;DHT22;8313;49.894;8.084;2023-12-20T03:18:16;5.00;99.90
16408;DHT22;8313;49.894;8.084;2023-12-20T03:20:42;5.00;99.90
16408;DHT22;8313;49.894;8.084;2023-12-20T03:23:08;5.00;99.90
16408;DHT22;8313;49.894;8.084;2023-12-20T03:25:33;5.00;99.90
16408;DHT22;8313;49.894;8.084;2023-12-20T03:27:59;5.00;99.90
16408;DHT22;8313;49.894;8.084;2023-12-20T03:30:24;5.00;99.90
16408;DHT22;8313;49.894;8.084;2023-12-20T03:32:50;5.00;99.90
16408;DHT22;8313;49.894;8.084;2023-12-20T03:35:16;5.00;99.90
16408;DHT22;8313;49.894;8.084;2023-12-20T03:37:41;5.10;99.90
16408;DHT22;8313;49.894;8.084;2023-12-20T03:40:07;5.10;99.90
16408;DHT22;8313;49.894;8.084;2023-12-20T03:42:33;5.00;99.90
16408;DHT22;8313;49.894;8.084;2023-12-20T03:44:59;5.10;99.90
16408;DHT22;8313;49.894;8.084;2023-12-20T03:47:24;5.00;99.90
16408;DHT22;8313;49.894;8.084;2023-12-20T03:49:50;5.10;99.90
16408;DHT22;8313;49.894;8.084;2023-12-20T03:52:16;5.10;99.90
16408;DHT22;8313;49.894;8.084;2023-12-20T03:54:41;5.10;99.90
16408;DHT22;8313;49.894;8.084;2023-12-20T03:57:08;5.10;99.90
16408;DHT22;8313;49.894;8.084;2023-12-20T03:59:37;5.10;99.90
16408;DHT22;8313;49.894;8.084;2023-12-20T04:02:03;5.10;99.90
16408;DHT22;8313;49.894;8.084;2023-12-20T04:04:29;5.10;99.90
16408;DHT22;8313;49.894;8.084;2023-12-20T04:06:55;5.10;99.90
16408;DHT22;8313;49.894;8.084;2023-12-20T04:09:21;5.10;99.90
16408;DHT22;8313;49.894;8.084;2023-12-20T04:11:46;5.10;99.90
16408;DHT22;8313;49.894;8.084;2023-12-20T04:14:12;5.20;99.90
16408;DHT22;8313;49.894;8.084;2023-12-20T04:16:38;5.10;99.90
16408;DHT22;8313;49.894;8.084;2023-12-20T04:19:04;5.20;99.90
16408;DHT22;8313;49.894;8.084;2023-12-20T04:21:30;5.20;99.90
16408;DHT22;8313;49.894;8.084;2023-12-20T04:23:56;5.10;99.90
16408;DHT22;8313;49.894;8.084;2023-12-20T04:26:22;5.20;99.90
16408;DHT22;8313;49.894;8.084;2023-12-20T04:28:47;5.10;99.90
16408;DHT22;8313;49.894;8.084;2023-12-20T04:31:13;5.10;99.90
16408;DHT22;8313;49.894;8.084;2023-12-20T04:33:39;5.10;99.90
16408;DHT22;8313;49.894;8.084;2023-12-20T04:36:05;5.20;99.90
16408;DHT22;8313;49.894;8.084;2023-12-20T04:38:30;5.20;99.90
16408;DHT22;8313;49.894;8.084;2023-12-20T04:40:56;5.20;99.90
16408;DHT22;8313;49.894;8.084;2023-12-20T04:43:22;5.20;99.90
16408;DHT22;8313;49.894;8.084;2023-12-20T04:45:48;5.20;99.90
16408;DHT22;8313;49.894;8.084;2023-12-20T04:48:13;5.30;99.90
16408;DHT22;8313;49.894;8.084;2023-12-20T04:50:39;5.30;99.90
16408;DHT22;8313;49.894;8.084;2023-12-20T04:53:05;5.30;99.90
16408;DHT22;8313;49.894;8.084;2023-12-20T04:55:30;5.30;99.90
16408;DHT22;8313;49.894;8.084;2023-12-20T04:57:56;5.30;99.90
16408;DHT22;8313;49.894;8.084;2023-12-20T05:00:22;5.30;99.90
16408;DHT22;8313;49.894;8.084;2023-12-20T05:02:48;5.20;99.90
16408;DHT22;8313;49.894;8.084;2023-12-20T05:05:13;5.20;99.90
16408;DHT22;8313;49.894;8.084;2023-12-20T05:07:40;5.20;99.90
16408;DHT22;8313;49.894;8.084;2023-12-20T05:10:07;5.20;99.90
16408;DHT22;8313;49.894;8.084;2023-12-20T05:12:35;5.20;99.90
16408;DHT22;8313;49.894;8.084;2023-12-20T05:15:01;5.20;99.90
16408;DHT22;8313;49.894;8.084;2023-12-20T05:17:27;5.20;99.90
16408;DHT22;8313;49.894;8.084;2023-12-20T05:19:52;5.20;99.90
16408;DHT22;8313;49.894;8.084;2023-12-20T05:22:19;5.10;99.90
16408;DHT22;8313;49.894;8.084;2023-12-20T05:24:45;5.10;99.90
16408;DHT22;8313;49.894;8.084;2023-12-20T05:27:11;5.00;99.90
16408;DHT22;8313;49.894;8.084;2023-12-20T05:29:37;5.00;99.90
16408;DHT22;8313;49.894;8.084;2023-12-20T05:32:04;5.00;99.90
16408;DHT22;8313;49.894;8.084;2023-12-20T05:34:30;5.00;99.90
16408;DHT22;8313;49.894;8.084;2023-12-20T05:36:57;5.00;99.90
16408;DHT22;8313;49.894;8.084;2023-12-20T05:39:23;5.00;99.90
16408;DHT22;8313;49.894;8.084;2023-12-20T05:41:48;5.10;99.90
16408;DHT22;8313;49.894;8.084;2023-12-20T05:44:14;5.10;99.90
16408;DHT22;8313;49.894;8.084;2023-12-20T05:46:40;5.10;99.90
16408;DHT22;8313;49.894;8.084;2023-12-20T05:49:06;5.10;99.90
16408;DHT22;8313;49.894;8.084;2023-12-20T05:51:32;5.10;99.90
16408;DHT22;8313;49.894;8.084;2023-12-20T05:53:58;5.10;99.90
16408;DHT22;8313;49.894;8.084;2023-12-20T05:56:24;5.10;99.90
16408;DHT22;8313;49.894;8.084;2023-12-20T05:58:49;5.10;99.90
16408;DHT22;8313;49.894;8.084;2023-12-20T06:01:15;4.90;99.90
16408;DHT22;8313;49.894;8.084;2023-12-20T06:03:43;4.80;99.90
16408;DHT22;8313;49.894;8.084;2023-12-20T06:06:09;4.80;99.90
16408;DHT22;8313;49.894;8.084;2023-12-20T06:08:35;4.80;99.90
16408;DHT22;8313;49.894;8.084;2023-12-20T06:11:01;4.80;99.90
16408;DHT22;8313;49.894;8.084;2023-12-20T06:13:26;4.80;99.90
16408;DHT22;8313;49.894;8.084;2023-12-20T06:15:54;4.90;99.90
16408;DHT22;8313;49.894;8.084;2023-12-20T06:18:20;4.90;99.90
16408;DHT22;8313;49.894;8.084;2023-12-20T06:20:46;4.70;99.90
16408;DHT22;8313;49.894;8.084;2023-12-20T06:23:11;4.50;99.90
16408;DHT22;8313;49.894;8.084;2023-12-20T06:25:37;4.40;99.90
16408;DHT22;8313;49.894;8.084;2023-12-20T06:28:03;4.40;99.90
16408;DHT22;8313;49.894;8.084;2023-12-20T06:30:29;4.30;99.90
16408;DHT22;8313;49.894;8.084;2023-12-20T06:32:54;4.30;99.90
16408;DHT22;8313;49.894;8.084;2023-12-20T06:35:23;4.30;99.90
16408;DHT22;8313;49.894;8.084;2023-12-20T06:37:48;4.20;99.90
16408;DHT22;8313;49.894;8.084;2023-12-20T06:40:14;4.20;99.90
16408;DHT22;8313;49.894;8.084;2023-12-20T06:42:39;4.20;99.90
16408;DHT22;8313;49.894;8.084;2023-12-20T06:45:05;4.20;99.90
16408;DHT22;8313;49.894;8.084;2023-12-20T06:47:31;4.20;99.90
16408;DHT22;8313;49.894;8.084;2023-12-20T06:49:57;4.20;99.90
16408;DHT22;8313;49.894;8.084;2023-12-20T06:52:23;4.20;99.90
16408;DHT22;8313;49.894;8.084;2023-12-20T06:54:49;4.20;99.90
16408;DHT22;8313;49.894;8.084;2023-12-20T06:57:14;4.20;99.90
16408;DHT22;8313;49.894;8.084;2023-12-20T06:59:43;4.20;99.90
16408;DHT22;8313;49.894;8.084;2023-12-20T07:02:09;4.20;99.90
16408;DHT22;8313;49.894;8.084;2023-12-20T07:04:39;4.10;99.90
16408;DHT22;8313;49.894;8.084;2023-12-20T07:07:05;4.10;99.90
16408;DHT22;8313;49.894;8.084;2023-12-20T07:09:32;4.10;99.90
16408;DHT22;8313;49.894;8.084;2023-12-20T07:11:58;4.10;99.90
16408;DHT22;8313;49.894;8.084;2023-12-20T07:14:24;4.10;99.90
16408;DHT22;8313;49.894;8.084;2023-12-20T07:16:50;4.10;99.90
16408;DHT22;8313;49.894;8.084;2023-12-20T07:19:16;4.10;99.90
16408;DHT22;8313;49.894;8.084;2023-12-20T07:21:41;4.10;99.90
16408;DHT22;8313;49.894;8.084;2023-12-20T07:24:07;4.10;99.90
16408;DHT22;8313;49.894;8.084;2023-12-20T07:26:33;4.10;99.90
16408;DHT22;8313;49.894;8.084;2023-12-20T07:28:59;4.10;99.90
16408;DHT22;8313;49.894;8.084;2023-12-20T07:31:25;4.10;99.90
16408;DHT22;8313;49.894;8.084;2023-12-20T07:33:50;4.10;99.90
16408;DHT22;8313;49.894;8.084;2023-12-20T07:36:16;4.10;99.90
16408;DHT22;8313;49.894;8.084;2023-12-20T07:38:42;4.00;99.90
16408;DHT22;8313;49.894;8.084;2023-12-20T07:41:12;4.00;99.90
16408;DHT22;8313;49.894;8.084;2023-12-20T07:43:38;4.00;99.90
16408;DHT22;8313;49.894;8.084;2023-12-20T07:46:10;3.90;99.90
16408;DHT22;8313;49.894;8.084;2023-12-20T07:48:36;4.00;99.90
16408;DHT22;8313;49.894;8.084;2023-12-20T07:51:02;4.00;99.90
16408;DHT22;8313;49.894;8.084;2023-12-20T07:53:28;3.90;99.90
16408;DHT22;8313;49.894;8.084;2023-12-20T07:55:53;3.90;99.90
16408;DHT22;8313;49.894;8.084;2023-12-20T07:58:20;4.00;99.90
16408;DHT22;8313;49.894;8.084;2023-12-20T08:00:46;4.00;99.90
16408;DHT22;8313;49.894;8.084;2023-12-20T08:03:11;4.10;99.90
16408;DHT22;8313;49.894;8.084;2023-12-20T08:05:38;4.20;99.90
16408;DHT22;8313;49.894;8.084;2023-12-20T08:08:06;4.20;99.90
16408;DHT22;8313;49.894;8.084;2023-12-20T08:10:32;4.20;99.90
16408;DHT22;8313;49.894;8.084;2023-12-20T08:12:57;4.20;99.90
16408;DHT22;8313;49.894;8.084;2023-12-20T08:15:23;4.10;99.90
16408;DHT22;8313;49.894;8.084;2023-12-20T08:17:49;4.10;99.90
16408;DHT22;8313;49.894;8.084;2023-12-20T08:20:17;4.20;99.90
16408;DHT22;8313;49.894;8.084;2023-12-20T08:22:42;4.20;99.90
16408;DHT22;8313;49.894;8.084;2023-12-20T08:25:08;4.10;99.90
16408;DHT22;8313;49.894;8.084;2023-12-20T08:27:39;4.20;99.90
16408;DHT22;8313;49.894;8.084;2023-12-20T08:30:05;4.30;99.90
16408;DHT22;8313;49.894;8.084;2023-12-20T08:32:31;4.30;99.90
16408;DHT22;8313;49.894;8.084;2023-12-20T08:34:57;4.40;99.90
16408;DHT22;8313;49.894;8.084;2023-12-20T08:37:23;4.40;99.90
16408;DHT22;8313;49.894;8.084;2023-12-20T08:39:49;4.40;99.90
16408;DHT22;8313;49.894;8.084;2023-12-20T08:42:15;4.40;99.90
16408;DHT22;8313;49.894;8.084;2023-12-20T08:44:40;4.30;99.90
16408;DHT22;8313;49.894;8.084;2023-12-20T08:47:06;4.30;99.90
16408;DHT22;8313;49.894;8.084;2023-12-20T08:49:32;4.30;99.90
16408;DHT22;8313;49.894;8.084;2023-12-20T08:51:57;4.30;99.90
16408;DHT22;8313;49.894;8.084;2023-12-20T08:54:24;4.40;99.90
16408;DHT22;8313;49.894;8.084;2023-12-20T08:56:50;4.40;99.90
16408;DHT22;8313;49.894;8.084;2023-12-20T08:59:15;4.40;99.90
16408;DHT22;8313;49.894;8.084;2023-12-20T09:01:41;4.50;99.90
16408;DHT22;8313;49.894;8.084;2023-12-20T09:04:07;4.50;99.90
16408;DHT22;8313;49.894;8.084;2023-12-20T09:06:32;4.50;99.90
16408;DHT22;8313;49.894;8.084;2023-12-20T09:08:58;4.50;99.90
16408;DHT22;8313;49.894;8.084;2023-12-20T09:11:24;4.60;99.90
16408;DHT22;8313;49.894;8.084;2023-12-20T09:13:49;4.60;99.90
16408;DHT22;8313;49.894;8.084;2023-12-20T09:16:15;4.60;99.90
16408;DHT22;8313;49.894;8.084;2023-12-20T09:18:42;4.60;99.90
16408;DHT22;8313;49.894;8.084;2023-12-20T09:21:07;4.70;99.90
16408;DHT22;8313;49.894;8.084;2023-12-20T09:23:33;4.70;99.90
16408;DHT22;8313;49.894;8.084;2023-12-20T09:25:59;4.70;99.90
16408;DHT22;8313;49.894;8.084;2023-12-20T09:28:25;4.80;99.90
16408;DHT22;8313;49.894;8.084;2023-12-20T09:30:50;4.80;99.90
16408;DHT22;8313;49.894;8.084;2023-12-20T09:33:16;4.80;99.90
16408;DHT22;8313;49.894;8.084;2023-12-20T09:35:42;4.80;99.90
16408;DHT22;8313;49.894;8.084;2023-12-20T09:38:08;4.80;99.90
16408;DHT22;8313;49.894;8.084;2023-12-20T09:40:35;4.90;99.90
16408;DHT22;8313;49.894;8.084;2023-12-20T09:43:10;4.90;99.90
16408;DHT22;8313;49.894;8.084;2023-12-20T09:45:36;5.00;99.90
16408;DHT22;8313;49.894;8.084;2023-12-20T09:48:03;5.00;99.90
16408;DHT22;8313;49.894;8.084;2023-12-20T09:50:30;5.00;99.90
16408;DHT22;8313;49.894;8.084;2023-12-20T09:52:58;5.00;99.90
16408;DHT22;8313;49.894;8.084;2023-12-20T09:55:28;5.10;99.90
16408;DHT22;8313;49.894;8.084;2023-12-20T09:57:54;5.00;99.90
16408;DHT22;8313;49.894;8.084;2023-12-20T10:00:20;5.10;99.90
16408;DHT22;8313;49.894;8.084;2023-12-20T10:02:50;5.10;99.90
16408;DHT22;8313;49.894;8.084;2023-12-20T10:05:29;5.10;99.90
16408;DHT22;8313;49.894;8.084;2023-12-20T10:07:55;5.10;99.90
16408;DHT22;8313;49.894;8.084;2023-12-20T10:10:21;5.20;99.90
16408;DHT22;8313;49.894;8.084;2023-12-20T10:13:12;5.20;99.90
16408;DHT22;8313;49.894;8.084;2023-12-20T10:15:38;5.30;99.90
16408;DHT22;8313;49.894;8.084;2023-12-20T10:18:05;5.30;99.90
16408;DHT22;8313;49.894;8.084;2023-12-20T10:20:31;5.30;99.90
16408;DHT22;8313;49.894;8.084;2023-12-20T10:22:58;5.40;99.90
16408;DHT22;8313;49.894;8.084;2023-12-20T10:25:24;5.40;99.90
16408;DHT22;8313;49.894;8.084;2023-12-20T10:28:12;5.40;99.90
16408;DHT22;8313;49.894;8.084;2023-12-20T10:30:38;5.50;99.90
16408;DHT22;8313;49.894;8.084;2023-12-20T10:33:06;5.50;99.90
16408;DHT22;8313;49.894;8.084;2023-12-20T10:35:33;5.50;99.90
16408;DHT22;8313;49.894;8.084;2023-12-20T10:38:03;5.50;99.90
16408;DHT22;8313;49.894;8.084;2023-12-20T10:40:29;5.50;99.90
16408;DHT22;8313;49.894;8.084;2023-12-20T10:42:56;5.50;99.90
16408;DHT22;8313;49.894;8.084;2023-12-20T10:45:23;5.50;99.90
16408;DHT22;8313;49.894;8.084;2023-12-20T10:47:49;5.50;99.90
16408;DHT22;8313;49.894;8.084;2023-12-20T10:50:15;5.60;99.90
16408;DHT22;8313;49.894;8.084;2023-12-20T10:52:42;5.60;99.90
16408;DHT22;8313;49.894;8.084;2023-12-20T10:55:08;5.60;99.90
16408;DHT22;8313;49.894;8.084;2023-12-20T10:57:36;5.60;99.90
16408;DHT22;8313;49.894;8.084;2023-12-20T11:00:02;5.70;99.90
16408;DHT22;8313;49.894;8.084;2023-12-20T11:02:38;5.60;99.90
16408;DHT22;8313;49.894;8.084;2023-12-20T11:05:19;5.70;99.90
16408;DHT22;8313;49.894;8.084;2023-12-20T11:07:52;5.70;99.90
16408;DHT22;8313;49.894;8.084;2023-12-20T11:10:59;5.70;99.90
16408;DHT22;8313;49.894;8.084;2023-12-20T11:13:21;5.80;99.90
16408;DHT22;8313;49.894;8.084;2023-12-20T11:15:48;5.80;99.90
16408;DHT22;8313;49.894;8.084;2023-12-20T11:18:15;5.80;99.90
16408;DHT22;8313;49.894;8.084;2023-12-20T11:20:41;5.90;99.90
16408;DHT22;8313;49.894;8.084;2023-12-20T11:23:08;5.90;99.90
16408;DHT22;8313;49.894;8.084;2023-12-20T11:28:12;6.00;99.90
16408;DHT22;8313;49.894;8.084;2023-12-20T11:33:08;6.00;99.90
16408;DHT22;8313;49.894;8.084;2023-12-20T11:35:34;5.90;99.90
16408;DHT22;8313;49.894;8.084;2023-12-20T11:38:02;6.00;99.90
16408;DHT22;8313;49.894;8.084;2023-12-20T11:40:28;6.00;99.90
16408;DHT22;8313;49.894;8.084;2023-12-20T11:42:53;5.90;99.90
16408;DHT22;8313;49.894;8.084;2023-12-20T11:45:23;5.90;99.90
16408;DHT22;8313;49.894;8.084;2023-12-20T11:47:51;5.90;99.90
16408;DHT22;8313;49.894;8.084;2023-12-20T11:50:17;5.90;99.90
16408;DHT22;8313;49.894;8.084;2023-12-20T11:52:43;5.90;99.90
16408;DHT22;8313;49.894;8.084;2023-12-20T11:55:09;5.90;99.90
16408;DHT22;8313;49.894;8.084;2023-12-20T11:57:36;5.90;99.90
16408;DHT22;8313;49.894;8.084;2023-12-20T12:00:03;5.90;99.90
16408;DHT22;8313;49.894;8.084;2023-12-20T12:02:37;5.90;99.90
16408;DHT22;8313;49.894;8.084;2023-12-20T12:05:03;5.90;99.90
16408;DHT22;8313;49.894;8.084;2023-12-20T12:07:33;5.90;99.90
16408;DHT22;8313;49.894;8.084;2023-12-20T12:09:58;5.90;99.90
16408;DHT22;8313;49.894;8.084;2023-12-20T12:12:24;6.00;99.90
16408;DHT22;8313;49.894;8.084;2023-12-20T12:14:53;6.00;99.90
16408;DHT22;8313;49.894;8.084;2023-12-20T12:17:18;6.00;99.90
16408;DHT22;8313;49.894;8.084;2023-12-20T12:19:44;6.00;99.90
16408;DHT22;8313;49.894;8.084;2023-12-20T12:22:14;6.10;99.90
16408;DHT22;8313;49.894;8.084;2023-12-20T12:24:42;6.00;99.90
16408;DHT22;8313;49.894;8.084;2023-12-20T12:27:08;6.10;99.90
16408;DHT22;8313;49.894;8.084;2023-12-20T12:29:34;6.10;99.90
16408;DHT22;8313;49.894;8.084;2023-12-20T12:32:01;6.10;99.90
16408;DHT22;8313;49.894;8.084;2023-12-20T12:34:30;6.20;99.90
16408;DHT22;8313;49.894;8.084;2023-12-20T12:36:56;6.30;99.90
16408;DHT22;8313;49.894;8.084;2023-12-20T12:39:23;6.30;99.90
16408;DHT22;8313;49.894;8.084;2023-12-20T12:41:53;6.30;99.90
16408;DHT22;8313;49.894;8.084;2023-12-20T12:44:19;6.40;99.90
16408;DHT22;8313;49.894;8.084;2023-12-20T12:46:46;6.40;99.90
16408;DHT22;8313;49.894;8.084;2023-12-20T12:49:12;6.50;99.90
16408;DHT22;8313;49.894;8.084;2023-12-20T12:51:38;6.40;99.90
16408;DHT22;8313;49.894;8.084;2023-12-20T12:54:04;6.50;99.90
16408;DHT22;8313;49.894;8.084;2023-12-20T12:56:29;6.40;99.90
16408;DHT22;8313;49.894;8.084;2023-12-20T12:58:55;6.40;99.90
16408;DHT22;8313;49.894;8.084;2023-12-20T13:01:21;6.40;99.90
16408;DHT22;8313;49.894;8.084;2023-12-20T13:03:47;6.40;99.90
16408;DHT22;8313;49.894;8.084;2023-12-20T13:06:13;6.40;99.90
16408;DHT22;8313;49.894;8.084;2023-12-20T13:08:39;6.30;99.90
16408;DHT22;8313;49.894;8.084;2023-12-20T13:11:04;6.30;99.90
16408;DHT22;8313;49.894;8.084;2023-12-20T13:13:31;6.30;99.90
16408;DHT22;8313;49.894;8.084;2023-12-20T13:15:57;6.30;99.90
16408;DHT22;8313;49.894;8.084;2023-12-20T13:18:23;6.40;99.90
16408;DHT22;8313;49.894;8.084;2023-12-20T13:20:49;6.40;99.90
16408;DHT22;8313;49.894;8.084;2023-12-20T13:23:15;6.50;99.90
16408;DHT22;8313;49.894;8.084;2023-12-20T13:25:43;6.50;99.90
16408;DHT22;8313;49.894;8.084;2023-12-20T13:28:11;6.60;99.90
16408;DHT22;8313;49.894;8.084;2023-12-20T13:30:37;6.70;99.90
16408;DHT22;8313;49.894;8.084;2023-12-20T13:33:04;6.70;99.90
16408;DHT22;8313;49.894;8.084;2023-12-20T13:35:31;6.80;99.90
16408;DHT22;8313;49.894;8.084;2023-12-20T13:37:57;6.80;99.90
16408;DHT22;8313;49.894;8.084;2023-12-20T13:40:23;6.90;99.90
16408;DHT22;8313;49.894;8.084;2023-12-20T13:42:49;6.90;99.90
16408;DHT22;8313;49.894;8.084;2023-12-20T13:45:14;6.90;99.90
16408;DHT22;8313;49.894;8.084;2023-12-20T13:47:40;6.90;99.90
16408;DHT22;8313;49.894;8.084;2023-12-20T13:50:06;6.90;99.90
16408;DHT22;8313;49.894;8.084;2023-12-20T13:52:32;6.90;99.90
16408;DHT22;8313;49.894;8.084;2023-12-20T13:54:58;7.00;99.90
16408;DHT22;8313;49.894;8.084;2023-12-20T13:57:23;7.00;99.90
16408;DHT22;8313;49.894;8.084;2023-12-20T13:59:49;7.00;99.90
16408;DHT22;8313;49.894;8.084;2023-12-20T14:02:14;7.00;99.90
16408;DHT22;8313;49.894;8.084;2023-12-20T14:04:42;7.00;99.90
16408;DHT22;8313;49.894;8.084;2023-12-20T14:07:07;6.90;99.90
16408;DHT22;8313;49.894;8.084;2023-12-20T14:09:34;6.90;99.90
16408;DHT22;8313;49.894;8.084;2023-12-20T14:11:59;6.90;99.90
16408;DHT22;8313;49.894;8.084;2023-12-20T14:14:25;6.90;99.90
16408;DHT22;8313;49.894;8.084;2023-12-20T14:16:51;6.90;99.90
16408;DHT22;8313;49.894;8.084;2023-12-20T14:19:17;6.80;99.90
16408;DHT22;8313;49.894;8.084;2023-12-20T14:21:43;6.80;99.90
16408;DHT22;8313;49.894;8.084;2023-12-20T14:24:14;6.80;99.90
16408;DHT22;8313;49.894;8.084;2023-12-20T14:26:41;6.80;99.90
16408;DHT22;8313;49.894;8.084;2023-12-20T14:29:07;6.70;99.90
16408;DHT22;8313;49.894;8.084;2023-12-20T14:31:33;6.70;99.90
16408;DHT22;8313;49.894;8.084;2023-12-20T14:33:59;6.70;99.90
16408;DHT22;8313;49.894;8.084;2023-12-20T14:36:26;6.70;99.90
16408;DHT22;8313;49.894;8.084;2023-12-20T14:38:52;6.70;99.90
16408;DHT22;8313;49.894;8.084;2023-12-20T14:41:18;6.70;99.90
16408;DHT22;8313;49.894;8.084;2023-12-20T14:43:44;6.60;99.90
16408;DHT22;8313;49.894;8.084;2023-12-20T14:46:10;6.60;99.90
16408;DHT22;8313;49.894;8.084;2023-12-20T14:48:35;6.60;99.90
16408;DHT22;8313;49.894;8.084;2023-12-20T14:51:01;6.60;99.90
16408;DHT22;8313;49.894;8.084;2023-12-20T14:53:27;6.50;99.90
16408;DHT22;8313;49.894;8.084;2023-12-20T14:55:52;6.50;99.90
16408;DHT22;8313;49.894;8.084;2023-12-20T14:58:18;6.50;99.90
16408;DHT22;8313;49.894;8.084;2023-12-20T15:00:44;6.50;99.90
16408;DHT22;8313;49.894;8.084;2023-12-20T15:03:10;6.50;99.90
16408;DHT22;8313;49.894;8.084;2023-12-20T15:05:36;6.50;99.90
16408;DHT22;8313;49.894;8.084;2023-12-20T15:08:02;6.40;99.90
16408;DHT22;8313;49.894;8.084;2023-12-20T15:10:28;6.50;99.90
16408;DHT22;8313;49.894;8.084;2023-12-20T15:12:53;6.40;99.90
16408;DHT22;8313;49.894;8.084;2023-12-20T15:15:21;6.40;99.90
16408;DHT22;8313;49.894;8.084;2023-12-20T15:17:47;6.40;99.90
16408;DHT22;8313;49.894;8.084;2023-12-20T15:20:13;6.40;99.90
16408;DHT22;8313;49.894;8.084;2023-12-20T15:22:39;6.40;99.90
16408;DHT22;8313;49.894;8.084;2023-12-20T15:25:07;6.40;99.90
16408;DHT22;8313;49.894;8.084;2023-12-20T15:27:34;6.40;99.90
16408;DHT22;8313;49.894;8.084;2023-12-20T15:30:03;6.30;99.90
16408;DHT22;8313;49.894;8.084;2023-12-20T15:32:29;6.40;99.90
16408;DHT22;8313;49.894;8.084;2023-12-20T15:34:54;6.30;99.90
16408;DHT22;8313;49.894;8.084;2023-12-20T15:37:21;6.30;99.90
16408;DHT22;8313;49.894;8.084;2023-12-20T15:39:47;6.30;99.90
16408;DHT22;8313;49.894;8.084;2023-12-20T15:42:12;6.30;99.90
16408;DHT22;8313;49.894;8.084;2023-12-20T15:44:38;6.30;99.90
16408;DHT22;8313;49.894;8.084;2023-12-20T15:47:04;6.30;99.90
16408;DHT22;8313;49.894;8.084;2023-12-20T15:49:29;6.30;99.90
16408;DHT22;8313;49.894;8.084;2023-12-20T15:51:55;6.30;99.90
16408;DHT22;8313;49.894;8.084;2023-12-20T15:54:21;6.30;99.90
16408;DHT22;8313;49.894;8.084;2023-12-20T15:56:46;6.30;99.90
16408;DHT22;8313;49.894;8.084;2023-12-20T15:59:13;6.30;99.90
16408;DHT22;8313;49.894;8.084;2023-12-20T16:01:39;6.30;99.90